createdAt,value
2017-08-06T00:02:04.577Z,98421.80
2017-08-06T00:04:32.027Z,98426.62
2017-08-06T00:06:59.493Z,98420.61
2017-08-06T00:09:26.948Z,98425.22
2017-08-06T00:11:54.417Z,98424.93
2017-08-06T00:14:21.944Z,98435.59
2017-08-06T00:16:49.416Z,98447.51
2017-08-06T00:19:16.889Z,98445.14
2017-08-06T00:21:44.355Z,98457.80
2017-08-06T00:24:11.848Z,98457.09
2017-08-06T00:26:39.296Z,98451.57
2017-08-06T00:29:06.768Z,98434.78
2017-08-06T00:31:34.230Z,98436.12
2017-08-06T00:34:01.761Z,98459.56
2017-08-06T00:36:29.238Z,98467.80
2017-08-06T00:38:56.690Z,98463.38
2017-08-06T00:41:24.144Z,98461.80
2017-08-06T00:43:51.644Z,98469.84
2017-08-06T00:46:19.100Z,98482.56
2017-08-06T00:48:46.575Z,98482.74
2017-08-06T00:51:14.033Z,98473.24
2017-08-06T00:53:41.736Z,98476.75
2017-08-06T00:56:09.182Z,98488.82
2017-08-06T00:58:36.635Z,98501.35
2017-08-06T01:01:04.131Z,98513.28
2017-08-06T01:03:31.578Z,98514.99
2017-08-06T01:05:59.035Z,98510.03
2017-08-06T01:08:26.509Z,98500.81
2017-08-06T01:10:53.965Z,98487.06
2017-08-06T01:13:21.508Z,98469.09
2017-08-06T01:15:48.979Z,98465.48
2017-08-06T01:18:16.432Z,98476.47
2017-08-06T01:20:44.235Z,98489.90
2017-08-06T01:23:11.704Z,98491.31
2017-08-06T01:25:39.163Z,98501.17
2017-08-06T01:28:06.632Z,98508.74
2017-08-06T01:30:34.090Z,98521.17
2017-08-06T01:33:01.585Z,98522.06
2017-08-06T01:35:29.303Z,98518.58
2017-08-06T01:37:57.144Z,98519.66
2017-08-06T01:40:24.583Z,98515.59
2017-08-06T01:42:52.070Z,98508.50
2017-08-06T01:45:19.526Z,98506.08
2017-08-06T01:47:46.994Z,98514.63
2017-08-06T01:50:14.445Z,98509.72
2017-08-06T01:52:41.912Z,98505.16
2017-08-06T01:55:09.388Z,98491.41
2017-08-06T01:57:36.862Z,98499.11
2017-08-06T02:00:04.321Z,98507.61
2017-08-06T02:02:31.792Z,98507.19
2017-08-06T02:04:59.244Z,98500.64
2017-08-06T02:07:26.717Z,98504.64
2017-08-06T02:09:54.184Z,98502.03
2017-08-06T02:12:21.641Z,98505.23
2017-08-06T02:14:49.120Z,98497.49
2017-08-06T02:17:16.576Z,98496.09
2017-08-06T02:19:44.019Z,98504.09
2017-08-06T02:22:11.506Z,98493.80
2017-08-06T02:24:38.956Z,98490.58
2017-08-06T02:27:06.430Z,98492.33
2017-08-06T02:29:33.876Z,98497.23
2017-08-06T02:32:01.346Z,98498.59
2017-08-06T02:34:28.797Z,98496.52
2017-08-06T02:36:56.272Z,98507.55
2017-08-06T02:39:23.732Z,98511.61
2017-08-06T02:41:51.179Z,98505.17
2017-08-06T02:44:18.648Z,98502.98
2017-08-06T02:46:46.134Z,98508.75
2017-08-06T02:49:13.590Z,98512.21
2017-08-06T02:51:41.325Z,98517.83
2017-08-06T02:54:08.784Z,98512.62
2017-08-06T02:56:36.257Z,98510.62
2017-08-06T02:59:03.700Z,98513.29
2017-08-06T03:01:31.370Z,98509.13
2017-08-06T03:03:58.829Z,98509.22
2017-08-06T03:06:26.317Z,98504.09
2017-08-06T03:08:53.774Z,98499.70
2017-08-06T03:11:21.245Z,98509.17
2017-08-06T03:13:48.720Z,98541.77
2017-08-06T03:16:16.198Z,98542.12
2017-08-06T03:18:43.841Z,98521.41
2017-08-06T03:21:11.285Z,98522.55
2017-08-06T03:23:38.730Z,98529.47
2017-08-06T03:26:06.206Z,98539.47
2017-08-06T03:28:33.663Z,98542.06
2017-08-06T03:31:01.110Z,98546.97
2017-08-06T03:33:28.580Z,98540.74
2017-08-06T03:35:56.033Z,98528.31
2017-08-06T03:38:23.513Z,98531.09
2017-08-06T03:40:50.981Z,98527.77
2017-08-06T03:43:18.424Z,98538.85
2017-08-06T03:45:45.874Z,98554.55
2017-08-06T03:48:13.348Z,98561.39
2017-08-06T03:50:40.805Z,98562.47
2017-08-06T03:53:08.279Z,98568.36
2017-08-06T03:55:35.784Z,98552.13
2017-08-06T03:58:03.241Z,98550.19
2017-08-06T04:00:30.692Z,98553.33
2017-08-06T04:02:58.177Z,98550.85
2017-08-06T04:05:25.633Z,98556.25
2017-08-06T04:07:53.084Z,98566.17
2017-08-06T04:10:20.798Z,98573.77
2017-08-06T04:12:48.257Z,98573.09
2017-08-06T04:15:15.712Z,98583.75
2017-08-06T04:17:43.204Z,98581.45
2017-08-06T04:20:10.661Z,98579.67
2017-08-06T04:22:38.110Z,98579.91
2017-08-06T04:25:05.573Z,98581.73
2017-08-06T04:27:33.017Z,98597.05
2017-08-06T04:30:00.465Z,98592.31
2017-08-06T04:32:27.961Z,98594.05
2017-08-06T04:34:55.409Z,98595.39
2017-08-06T04:37:22.854Z,98595.68
2017-08-06T04:39:50.336Z,98601.70
2017-08-06T04:42:17.788Z,98600.86
2017-08-06T04:44:45.320Z,98604.44
2017-08-06T04:47:12.794Z,98602.48
2017-08-06T04:49:40.245Z,98608.72
2017-08-06T04:52:07.692Z,98596.92
2017-08-06T04:54:35.173Z,98610.98
2017-08-06T04:57:02.637Z,98619.50
2017-08-06T04:59:30.080Z,98633.61
2017-08-06T05:01:57.777Z,98640.70
2017-08-06T05:04:25.218Z,98642.31
2017-08-06T05:06:52.656Z,98640.73
2017-08-06T05:09:20.388Z,98643.51
2017-08-06T05:11:47.837Z,98659.78
2017-08-06T05:14:15.281Z,98668.61
2017-08-06T05:16:42.750Z,98678.89
2017-08-06T05:19:10.210Z,98674.76
2017-08-06T05:21:37.695Z,98679.59
2017-08-06T05:24:05.136Z,98690.05
2017-08-06T05:26:32.581Z,98690.25
2017-08-06T05:29:00.060Z,98696.91
2017-08-06T05:31:27.510Z,98703.72
2017-08-06T05:33:54.969Z,98698.41
2017-08-06T05:36:22.443Z,98714.14
2017-08-06T05:38:49.918Z,98723.38
2017-08-06T05:41:17.390Z,98731.06
2017-08-06T05:43:44.858Z,98729.33
2017-08-06T05:46:12.666Z,98729.53
2017-08-06T05:48:40.113Z,98749.55
2017-08-06T05:51:07.574Z,98747.10
2017-08-06T05:53:35.049Z,98753.58
2017-08-06T05:56:02.500Z,98746.59
2017-08-06T05:58:29.979Z,98748.81
2017-08-06T06:00:57.428Z,98761.02
2017-08-06T06:03:25.200Z,98768.30
2017-08-06T06:05:52.662Z,98761.69
2017-08-06T06:08:20.124Z,98773.15
2017-08-06T06:10:47.597Z,98773.89
2017-08-06T06:13:15.040Z,98782.30
2017-08-06T06:15:42.494Z,98786.27
2017-08-06T06:18:09.975Z,98787.80
2017-08-06T06:20:37.433Z,98794.81
2017-08-06T06:23:04.912Z,98798.27
2017-08-06T06:25:32.374Z,98796.75
2017-08-06T06:27:59.849Z,98800.07
2017-08-06T06:30:27.324Z,98801.33
2017-08-06T06:32:54.777Z,98790.40
2017-08-06T06:35:22.249Z,98776.05
2017-08-06T06:37:49.709Z,98763.20
2017-08-06T06:40:17.148Z,98746.63
2017-08-06T06:42:44.621Z,98746.06
2017-08-06T06:45:12.105Z,98745.20
2017-08-06T06:47:39.562Z,98740.06
2017-08-06T06:50:07.049Z,98759.13
2017-08-06T06:52:34.507Z,98767.48
2017-08-06T06:55:01.987Z,98774.13
2017-08-06T06:57:29.433Z,98776.30
2017-08-06T06:59:56.902Z,98789.19
2017-08-06T07:02:24.392Z,98786.40
2017-08-06T07:04:51.843Z,98787.08
2017-08-06T07:07:19.288Z,98780.52
2017-08-06T07:09:46.763Z,98777.20
2017-08-06T07:12:14.205Z,98787.71
2017-08-06T07:14:41.697Z,98797.18
2017-08-06T07:17:09.142Z,98798.94
2017-08-06T07:19:36.585Z,98800.05
2017-08-06T07:22:04.063Z,98796.28
2017-08-06T07:24:31.534Z,98798.01
2017-08-06T07:26:58.989Z,98800.88
2017-08-06T07:29:26.569Z,98803.70
2017-08-06T07:31:54.024Z,98799.98
2017-08-06T07:34:21.469Z,98807.61
2017-08-06T07:36:48.960Z,98808.92
2017-08-06T07:39:16.417Z,98799.13
2017-08-06T07:41:43.861Z,98804.09
2017-08-06T07:44:11.664Z,98809.77
2017-08-06T07:46:39.121Z,98814.63
2017-08-06T07:49:06.571Z,98822.33
2017-08-06T07:51:34.033Z,98819.38
2017-08-06T07:54:01.504Z,98814.25
2017-08-06T07:56:28.947Z,98822.13
2017-08-06T07:58:56.735Z,98819.11
2017-08-06T08:01:24.185Z,98821.48
2017-08-06T08:03:51.624Z,98814.83
2017-08-06T08:06:19.420Z,98825.47
2017-08-06T08:08:46.866Z,98835.84
2017-08-06T08:11:14.331Z,98834.66
2017-08-06T08:13:41.815Z,98840.61
2017-08-06T08:16:09.279Z,98824.72
2017-08-06T08:18:37.029Z,98824.70
2017-08-06T08:21:04.472Z,98825.27
2017-08-06T08:23:31.913Z,98819.92
2017-08-06T08:25:59.725Z,98821.15
2017-08-06T08:28:27.167Z,98818.56
2017-08-06T08:30:54.613Z,98811.50
2017-08-06T08:33:22.081Z,98814.03
2017-08-06T08:35:49.528Z,98822.91
2017-08-06T08:38:16.982Z,98824.63
2017-08-06T08:40:44.449Z,98819.66
2017-08-06T08:43:11.918Z,98823.75
2017-08-06T08:45:39.381Z,98823.75
2017-08-06T08:48:06.834Z,98817.34
2017-08-06T08:50:34.622Z,98815.61
2017-08-06T08:53:02.069Z,98798.49
2017-08-06T08:55:30.026Z,98789.48
2017-08-06T08:57:59.020Z,98792.38
2017-08-06T09:00:26.664Z,98802.14
2017-08-06T09:02:54.401Z,98807.52
2017-08-06T09:05:21.852Z,98808.37
2017-08-06T09:07:49.447Z,98802.67
2017-08-06T09:10:17.068Z,98805.66
2017-08-06T09:12:44.569Z,98805.77
2017-08-06T09:15:12.041Z,98808.82
2017-08-06T09:17:40.433Z,98816.04
2017-08-06T09:20:08.142Z,98818.77
2017-08-06T09:22:36.136Z,98815.84
2017-08-06T09:25:03.605Z,98815.27
2017-08-06T09:27:31.425Z,98820.04
2017-08-06T09:29:58.900Z,98822.47
2017-08-06T09:32:26.393Z,98823.28
2017-08-06T09:34:53.842Z,98826.74
2017-08-06T09:37:21.677Z,98829.27
2017-08-06T09:39:49.125Z,98830.47
2017-08-06T09:42:16.833Z,98839.07
2017-08-06T09:44:44.629Z,98834.00
2017-08-06T09:47:12.299Z,98838.25
2017-08-06T09:49:39.753Z,98839.83
2017-08-06T09:52:07.254Z,98836.42
2017-08-06T09:54:34.727Z,98840.61
2017-08-06T09:57:02.240Z,98837.22
2017-08-06T09:59:29.681Z,98820.78
2017-08-06T10:01:57.493Z,98817.83
2017-08-06T10:04:24.978Z,98814.81
2017-08-06T10:06:52.596Z,98812.42
2017-08-06T10:09:20.073Z,98810.55
2017-08-06T10:11:47.898Z,98802.79
2017-08-06T10:14:15.353Z,98797.17
2017-08-06T10:16:42.809Z,98808.00
2017-08-06T10:19:10.293Z,98816.70
2017-08-06T10:21:38.076Z,98830.19
2017-08-06T10:24:05.521Z,98824.70
2017-08-06T10:26:33.905Z,98813.72
2017-08-06T10:29:01.376Z,98818.53
2017-08-06T10:31:28.821Z,98826.24
2017-08-06T10:33:56.288Z,98826.59
2017-08-06T10:36:23.757Z,98817.14
2017-08-06T10:38:51.213Z,98831.20
2017-08-06T10:41:18.925Z,98837.64
2017-08-06T10:43:46.724Z,98836.82
2017-08-06T10:46:14.157Z,98834.20
2017-08-06T10:48:41.961Z,98830.78
2017-08-06T10:51:09.424Z,98830.36
2017-08-06T10:53:38.229Z,98839.00
2017-08-06T10:56:05.733Z,98830.00
2017-08-06T10:58:33.184Z,98829.77
2017-08-06T11:01:01.061Z,98820.37
2017-08-06T11:03:28.514Z,98823.56
2017-08-06T11:05:56.314Z,98826.49
2017-08-06T11:08:23.817Z,98830.53
2017-08-06T11:10:51.352Z,98831.14
2017-08-06T11:13:18.969Z,98826.28
2017-08-06T11:15:46.421Z,98826.34
2017-08-06T11:18:13.873Z,98819.81
2017-08-06T11:20:41.342Z,98825.61
2017-08-06T11:23:08.786Z,98832.68
2017-08-06T11:25:36.261Z,98835.91
2017-08-06T11:28:03.700Z,98836.74
2017-08-06T11:30:31.343Z,98841.28
2017-08-06T11:32:58.797Z,98850.84
2017-08-06T11:35:26.261Z,98860.78
2017-08-06T11:37:53.728Z,98864.13
2017-08-06T11:40:21.444Z,98863.80
2017-08-06T11:42:48.916Z,98866.94
2017-08-06T11:45:16.365Z,98861.31
2017-08-06T11:47:43.832Z,98868.42
2017-08-06T11:50:11.277Z,98865.19
2017-08-06T11:52:38.744Z,98870.50
2017-08-06T11:55:06.397Z,98858.17
2017-08-06T11:57:33.841Z,98853.94
2017-08-06T12:00:01.291Z,98842.11
2017-08-06T12:02:28.853Z,98833.23
2017-08-06T12:04:56.318Z,98852.05
2017-08-06T12:07:24.064Z,98855.15
2017-08-06T12:09:51.517Z,98850.66
2017-08-06T12:12:19.006Z,98844.59
2017-08-06T12:14:46.472Z,98847.73
2017-08-06T12:17:14.170Z,98846.41
2017-08-06T12:19:41.642Z,98842.52
2017-08-06T12:22:09.082Z,98857.84
2017-08-06T12:24:36.648Z,98885.98
2017-08-06T12:27:04.108Z,98913.52
2017-08-06T12:29:31.557Z,98908.80
2017-08-06T12:31:59.234Z,98893.02
2017-08-06T12:34:26.729Z,98889.02
2017-08-06T12:36:54.349Z,98885.77
2017-08-06T12:39:21.678Z,98894.55
2017-08-06T12:41:49.383Z,98901.31
2017-08-06T12:44:16.829Z,98909.52
2017-08-06T12:46:44.282Z,98911.69
2017-08-06T12:49:12.042Z,98897.78
2017-08-06T12:51:39.497Z,98885.72
2017-08-06T12:54:06.965Z,98891.72
2017-08-06T12:56:34.433Z,98909.00
2017-08-06T12:59:01.893Z,98911.30
2017-08-06T13:01:29.368Z,98910.06
2017-08-06T13:03:56.841Z,98905.26
2017-08-06T13:06:24.331Z,98899.64
2017-08-06T13:08:52.349Z,98915.40
2017-08-06T13:11:20.169Z,98921.34
2017-08-06T13:13:47.641Z,98919.50
2017-08-06T13:16:15.092Z,98910.48
2017-08-06T13:18:42.547Z,98898.09
2017-08-06T13:21:10.301Z,98886.00
2017-08-06T13:23:38.034Z,98886.05
2017-08-06T13:26:05.498Z,98893.48
2017-08-06T13:28:33.055Z,98891.02
2017-08-06T13:31:00.527Z,98901.53
2017-08-06T13:33:27.964Z,98909.44
2017-08-06T13:35:55.449Z,98908.17
2017-08-06T13:38:22.888Z,98916.48
2017-08-06T13:40:50.334Z,98919.78
2017-08-06T13:43:17.806Z,98922.51
2017-08-06T13:45:45.265Z,98923.31
2017-08-06T13:48:12.732Z,98925.64
2017-08-06T13:50:40.210Z,98931.89
2017-08-06T13:53:07.692Z,98925.17
2017-08-06T13:58:11.886Z,98914.96
2017-08-06T14:00:39.685Z,98914.05
2017-08-06T14:03:08.108Z,98915.91
2017-08-06T14:05:36.571Z,98914.86
2017-08-06T14:08:04.045Z,98917.03
2017-08-06T14:10:31.503Z,98920.63
2017-08-06T14:13:00.214Z,98912.48
2017-08-06T14:15:28.769Z,98919.03
2017-08-06T14:17:56.441Z,98913.95
2017-08-06T14:20:24.078Z,98917.48
2017-08-06T14:22:52.430Z,98915.39
2017-08-06T14:25:19.973Z,98921.09
2017-08-06T14:27:47.410Z,98913.76
2017-08-06T14:30:14.880Z,98920.57
2017-08-06T14:32:42.813Z,98916.77
2017-08-06T14:35:10.297Z,98920.64
2017-08-06T14:37:37.747Z,98917.56
2017-08-06T14:40:05.198Z,98910.14
2017-08-06T14:42:32.795Z,98907.88
2017-08-06T14:45:00.345Z,98912.88
2017-08-06T14:47:27.828Z,98911.98
2017-08-06T14:49:56.389Z,98901.73
2017-08-06T14:52:25.071Z,98901.45
2017-08-06T14:54:52.520Z,98907.19
2017-08-06T14:57:19.960Z,98918.23
2017-08-06T14:59:47.422Z,98927.03
2017-08-06T15:02:14.868Z,98933.40
2017-08-06T15:04:42.621Z,98929.97
2017-08-06T15:07:10.557Z,98935.65
2017-08-06T15:09:38.114Z,98941.80
2017-08-06T15:12:05.978Z,98943.41
2017-08-06T15:14:33.422Z,98946.78
2017-08-06T15:17:02.394Z,98944.73
2017-08-06T15:19:29.945Z,98933.66
2017-08-06T15:21:58.325Z,98937.31
2017-08-06T15:24:26.873Z,98939.06
2017-08-06T15:26:54.324Z,98944.97
2017-08-06T15:29:22.149Z,98950.49
2017-08-06T15:31:49.597Z,98943.34
2017-08-06T15:34:17.529Z,98943.91
2017-08-06T15:36:46.316Z,98950.25
2017-08-06T15:39:14.183Z,98958.39
2017-08-06T15:41:41.992Z,98955.74
2017-08-06T15:44:09.442Z,98958.92
2017-08-06T15:46:37.616Z,98956.72
2017-08-06T15:49:05.739Z,98957.27
2017-08-06T15:51:33.189Z,98952.02
2017-08-06T15:54:00.761Z,98949.80
2017-08-06T15:56:28.283Z,98949.89
2017-08-06T15:58:55.757Z,98953.39
2017-08-06T16:01:23.425Z,98950.73
2017-08-06T16:03:50.877Z,98962.92
2017-08-06T16:06:18.322Z,98976.33
2017-08-06T16:08:45.789Z,98978.84
2017-08-06T16:11:13.237Z,98978.73
2017-08-06T16:13:40.705Z,98981.57
2017-08-06T16:16:08.170Z,98975.29
2017-08-06T16:18:35.948Z,98968.79
2017-08-06T16:21:03.401Z,98972.97
2017-08-06T16:23:30.847Z,98967.53
2017-08-06T16:25:58.660Z,98968.73
2017-08-06T16:28:26.101Z,98973.31
2017-08-06T16:30:53.552Z,98972.37
2017-08-06T16:33:21.321Z,98981.31
2017-08-06T16:35:48.764Z,98974.31
2017-08-06T16:38:16.218Z,98978.14
2017-08-06T16:40:44.008Z,98969.95
2017-08-06T16:43:11.461Z,98980.74
2017-08-06T16:45:38.912Z,98979.67
2017-08-06T16:48:06.377Z,98980.89
2017-08-06T16:50:33.826Z,98977.07
2017-08-06T16:53:01.438Z,98980.44
2017-08-06T16:55:29.805Z,98973.43
2017-08-06T16:57:57.521Z,98970.31
2017-08-06T17:00:25.249Z,98956.30
2017-08-06T17:02:52.721Z,98948.55
2017-08-06T17:05:20.960Z,98941.41
2017-08-06T17:07:49.371Z,98947.65
2017-08-06T17:10:16.827Z,98936.20
2017-08-06T17:12:44.313Z,98938.50
2017-08-06T17:15:11.816Z,98940.25
2017-08-06T17:17:39.902Z,98938.60
2017-08-06T17:20:07.932Z,98942.77
2017-08-06T17:22:35.760Z,98940.03
2017-08-06T17:25:03.218Z,98945.72
2017-08-06T17:27:30.676Z,98947.80
2017-08-06T17:29:58.686Z,98957.06
2017-08-06T17:32:26.416Z,98950.43
2017-08-06T17:34:53.873Z,98962.63
2017-08-06T17:37:22.029Z,98950.71
2017-08-06T17:39:50.437Z,98955.48
2017-08-06T17:42:17.973Z,98958.45
2017-08-06T17:44:45.425Z,98945.16
2017-08-06T17:47:13.749Z,98947.14
2017-08-06T17:49:42.454Z,98945.67
2017-08-06T17:52:10.200Z,98941.41
2017-08-06T17:54:37.972Z,98947.55
2017-08-06T17:57:06.012Z,98942.69
2017-08-06T17:59:34.388Z,98942.17
2017-08-06T18:02:01.833Z,98928.91
2017-08-06T18:04:29.317Z,98921.98
2017-08-06T18:06:56.761Z,98934.75
2017-08-06T18:09:24.969Z,98929.72
2017-08-06T18:11:52.608Z,98931.49
2017-08-06T18:14:20.080Z,98934.34
2017-08-06T18:16:48.157Z,98936.56
2017-08-06T18:19:15.625Z,98941.45
2017-08-06T18:21:43.073Z,98954.61
2017-08-06T18:24:11.444Z,98958.61
2017-08-06T18:26:39.418Z,98973.39
2017-08-06T18:29:07.840Z,98979.11
2017-08-06T18:31:35.320Z,98995.36
2017-08-06T18:34:02.780Z,98997.11
2017-08-06T18:36:30.239Z,99009.62
2017-08-06T18:38:57.746Z,99012.04
2017-08-06T18:41:25.203Z,99001.92
2017-08-06T18:43:52.697Z,98998.50
2017-08-06T18:46:21.195Z,99000.97
2017-08-06T18:48:49.675Z,98999.89
2017-08-06T18:51:17.158Z,98998.75
2017-08-06T18:53:44.648Z,98996.34
2017-08-06T18:56:12.356Z,99004.09
2017-08-06T18:58:41.624Z,99003.48
2017-08-06T19:01:09.109Z,99005.71
2017-08-06T19:03:36.979Z,99020.36
2017-08-06T19:06:04.446Z,99028.20
2017-08-06T19:08:32.573Z,99037.23
2017-08-06T19:11:00.065Z,99048.92
2017-08-06T19:13:27.553Z,99050.18
2017-08-06T19:15:55.027Z,99055.05
2017-08-06T19:18:23.217Z,99059.80
2017-08-06T19:20:50.729Z,99056.05
2017-08-06T19:23:18.226Z,99057.02
2017-08-06T19:25:45.695Z,99046.58
2017-08-06T19:28:14.323Z,99066.81
2017-08-06T19:30:42.412Z,99064.97
2017-08-06T19:33:10.186Z,99061.84
2017-08-06T19:35:37.661Z,99061.06
2017-08-06T19:38:05.613Z,99057.72
2017-08-06T19:40:34.007Z,99061.24
2017-08-06T19:43:01.492Z,99060.59
2017-08-06T19:45:28.961Z,99053.86
2017-08-06T19:47:56.783Z,99053.66
2017-08-06T19:50:24.976Z,99058.69
2017-08-06T19:52:53.795Z,99051.58
2017-08-06T19:55:21.281Z,99050.00
2017-08-06T19:57:48.743Z,99047.69
2017-08-06T20:00:16.212Z,99044.48
2017-08-06T20:02:44.561Z,99030.67
2017-08-06T20:05:12.006Z,99012.53
2017-08-06T20:07:39.472Z,99007.92
2017-08-06T20:10:06.939Z,99002.73
2017-08-06T20:12:34.430Z,99007.54
2017-08-06T20:15:01.891Z,99000.52
2017-08-06T20:17:29.378Z,99006.47
2017-08-06T20:19:56.834Z,99000.52
2017-08-06T20:22:24.327Z,99009.16
2017-08-06T20:24:51.790Z,99007.23
2017-08-06T20:27:19.250Z,99005.31
2017-08-06T20:29:46.962Z,99000.97
2017-08-06T20:32:14.412Z,98991.41
2017-08-06T20:34:41.889Z,98989.33
2017-08-06T20:37:09.337Z,98982.23
2017-08-06T20:39:36.791Z,98976.05
2017-08-06T20:42:04.285Z,98980.20
2017-08-06T20:44:31.780Z,98981.97
2017-08-06T20:46:59.244Z,98974.92
2017-08-06T20:49:26.701Z,98971.84
2017-08-06T20:51:55.038Z,98967.91
2017-08-06T20:54:22.523Z,98976.22
2017-08-06T20:56:50.002Z,98985.34
2017-08-06T20:59:17.461Z,98989.94
2017-08-06T21:01:44.949Z,98993.53
2017-08-06T21:04:12.407Z,98998.48
2017-08-06T21:06:39.868Z,99009.55
2017-08-06T21:09:07.334Z,99023.63
2017-08-06T21:11:34.817Z,99022.78
2017-08-06T21:14:02.271Z,99035.59
2017-08-06T21:16:29.719Z,99034.88
2017-08-06T21:18:57.185Z,99033.22
2017-08-06T21:21:24.661Z,99029.02
2017-08-06T21:23:52.130Z,99019.88
2017-08-06T21:26:19.704Z,99022.53
2017-08-06T21:28:47.157Z,99015.78
2017-08-06T21:31:14.618Z,99010.22
2017-08-06T21:33:42.105Z,99007.12
2017-08-06T21:36:09.570Z,99003.92
2017-08-06T21:38:37.033Z,99006.52
2017-08-06T21:41:04.484Z,98996.83
2017-08-06T21:43:31.957Z,98990.64
2017-08-06T21:45:59.409Z,98997.56
2017-08-06T21:48:26.855Z,99002.23
2017-08-06T21:50:54.325Z,99011.84
2017-08-06T21:53:21.786Z,99007.44
2017-08-06T21:55:49.257Z,99006.99
2017-08-06T21:58:16.709Z,99008.17
2017-08-06T22:00:44.176Z,99014.16
2017-08-06T22:03:11.630Z,99015.46
2017-08-06T22:05:39.082Z,99015.98
2017-08-06T22:08:06.901Z,99019.44
2017-08-06T22:10:34.349Z,99022.53
2017-08-06T22:13:01.808Z,99025.90
2017-08-06T22:15:29.273Z,99022.08
2017-08-06T22:17:56.751Z,99027.05
2017-08-06T22:20:25.146Z,99029.70
2017-08-06T22:22:52.597Z,99029.25
2017-08-06T22:25:20.091Z,99036.36
2017-08-06T22:27:47.562Z,99028.75
2017-08-06T22:30:15.038Z,99036.19
2017-08-06T22:32:42.505Z,99036.11
2017-08-06T22:35:09.991Z,99037.64
2017-08-06T22:37:37.446Z,99040.50
2017-08-06T22:40:04.910Z,99036.61
2017-08-06T22:42:32.565Z,99039.34
2017-08-06T22:45:00.013Z,99039.58
2017-08-06T22:47:27.467Z,99036.28
2017-08-06T22:49:54.960Z,99044.33
2017-08-06T22:52:22.422Z,99042.88
2017-08-06T22:54:50.181Z,99038.47
2017-08-06T22:57:17.637Z,99023.48
2017-08-06T22:59:45.096Z,99010.73
2017-08-06T23:02:12.568Z,99011.49
2017-08-06T23:04:40.070Z,99019.64
2017-08-06T23:07:07.554Z,99029.52
2017-08-06T23:09:35.019Z,99042.23
2017-08-06T23:12:02.512Z,99046.52
2017-08-06T23:14:30.168Z,99044.03
2017-08-06T23:16:57.626Z,99048.48
2017-08-06T23:19:25.081Z,99047.38
2017-08-06T23:21:52.572Z,99049.39
2017-08-06T23:24:20.033Z,99051.14
2017-08-06T23:26:47.515Z,99049.41
2017-08-06T23:29:14.972Z,99059.55
2017-08-06T23:31:42.556Z,99055.65
2017-08-06T23:34:10.037Z,99043.44
2017-08-06T23:36:37.494Z,99045.17
2017-08-06T23:39:04.974Z,99051.59
2017-08-06T23:41:32.455Z,99057.14
2017-08-06T23:43:59.923Z,99060.14
2017-08-06T23:46:27.413Z,99051.39
2017-08-06T23:48:54.870Z,99048.37
2017-08-06T23:51:22.328Z,99048.92
2017-08-06T23:53:49.816Z,99043.58
2017-08-06T23:56:17.282Z,99047.40
2017-08-06T23:58:44.734Z,99044.34
